createdAt,value
2019-05-12T00:00:50.540Z,3.13
2019-05-12T00:03:27.670Z,3.07
2019-05-12T00:05:59.661Z,2.90
2019-05-12T00:08:30.270Z,2.80
2019-05-12T00:11:00.978Z,2.80
2019-05-12T00:13:32.549Z,2.77
2019-05-12T00:16:03.325Z,2.70
2019-05-12T00:18:33.969Z,3.27
2019-05-12T00:21:04.571Z,3.10
2019-05-12T00:23:38.181Z,2.90
2019-05-12T00:26:09.042Z,2.60
2019-05-12T00:28:41.978Z,3.10
2019-05-12T00:31:12.575Z,2.70
2019-05-12T00:33:43.334Z,2.90
2019-05-12T00:36:13.926Z,2.73
2019-05-12T00:38:44.467Z,2.67
2019-05-12T00:41:18.142Z,2.70
2019-05-12T00:43:48.812Z,3.33
2019-05-12T00:46:21.358Z,2.50
2019-05-12T00:48:51.980Z,3.10
2019-05-12T00:51:22.631Z,2.70
2019-05-12T00:53:53.200Z,3.13
2019-05-12T00:56:28.463Z,2.73
2019-05-12T00:58:59.468Z,2.37
2019-05-12T01:01:30.025Z,2.47
2019-05-12T01:04:00.778Z,2.87
2019-05-12T01:06:31.330Z,2.73
2019-05-12T01:09:09.458Z,2.70
2019-05-12T01:11:45.165Z,3.20
2019-05-12T01:14:15.872Z,2.50
2019-05-12T01:16:48.564Z,2.73
2019-05-12T01:19:18.914Z,2.73
2019-05-12T01:21:49.969Z,2.90
2019-05-12T01:24:21.663Z,2.70
2019-05-12T01:26:58.328Z,3.10
2019-05-12T01:29:42.067Z,2.60
2019-05-12T01:32:38.082Z,2.70
2019-05-12T01:35:13.790Z,2.60
2019-05-12T01:37:50.434Z,2.80
2019-05-12T01:40:21.274Z,3.20
2019-05-12T01:42:51.902Z,3.03
2019-05-12T01:45:22.661Z,2.50
2019-05-12T01:47:53.301Z,2.80
2019-05-12T01:50:28.256Z,2.73
2019-05-12T01:52:59.261Z,3.03
2019-05-12T01:55:30.024Z,3.20
2019-05-12T01:58:00.623Z,3.17
2019-05-12T02:00:31.343Z,3.03
2019-05-12T02:03:01.984Z,3.20
2019-05-12T02:05:34.583Z,2.50
2019-05-12T02:08:06.930Z,3.00
2019-05-12T02:10:38.950Z,2.70
2019-05-12T02:13:10.909Z,3.30
2019-05-12T02:15:41.816Z,2.63
2019-05-12T02:18:12.481Z,2.97
2019-05-12T02:20:48.848Z,4.10
2019-05-12T02:23:19.538Z,2.80
2019-05-12T02:25:50.263Z,3.10
2019-05-12T02:28:20.897Z,3.17
2019-05-12T02:30:51.385Z,2.77
2019-05-12T02:33:30.941Z,2.93
2019-05-12T02:36:04.721Z,3.33
2019-05-12T02:38:34.920Z,3.00
2019-05-12T02:41:05.557Z,3.30
2019-05-12T02:43:39.413Z,3.20
2019-05-12T02:46:10.079Z,3.10
2019-05-12T02:48:40.733Z,2.80
2019-05-12T02:51:15.226Z,3.50
2019-05-12T02:53:46.882Z,3.60
2019-05-12T02:56:16.805Z,3.37
2019-05-12T02:58:48.361Z,3.17
2019-05-12T03:01:20.651Z,2.90
2019-05-12T03:03:55.535Z,2.73
2019-05-12T03:06:35.748Z,3.33
2019-05-12T03:09:07.316Z,3.03
2019-05-12T03:11:38.021Z,3.10
2019-05-12T03:14:10.606Z,3.00
2019-05-12T03:16:45.369Z,3.20
2019-05-12T03:19:25.789Z,4.13
2019-05-12T03:21:56.534Z,3.00
2019-05-12T03:24:28.132Z,3.10
2019-05-12T03:27:04.364Z,2.83
2019-05-12T03:29:34.637Z,2.47
2019-05-12T03:32:08.629Z,2.80
2019-05-12T03:34:39.178Z,2.83
2019-05-12T03:37:09.753Z,2.27
2019-05-12T03:39:40.505Z,2.67
2019-05-12T03:42:24.947Z,2.63
2019-05-12T03:44:54.844Z,2.60
2019-05-12T03:47:25.487Z,2.77
2019-05-12T03:49:56.052Z,2.67
2019-05-12T03:52:26.727Z,2.80
2019-05-12T03:54:57.418Z,2.97
2019-05-12T03:57:34.286Z,2.97
2019-05-12T04:00:05.200Z,2.67
2019-05-12T04:02:36.128Z,3.10
2019-05-12T04:05:15.467Z,2.80
2019-05-12T04:07:45.307Z,2.80
2019-05-12T04:10:16.881Z,2.53
2019-05-12T04:12:47.471Z,2.70
2019-05-12T04:15:18.052Z,3.40
2019-05-12T04:17:49.287Z,2.60
2019-05-12T04:20:25.128Z,2.60
2019-05-12T04:22:54.848Z,2.63
2019-05-12T04:25:25.482Z,2.67
2019-05-12T04:27:58.010Z,2.90
2019-05-12T04:30:28.609Z,2.77
2019-05-12T04:32:59.178Z,3.00
2019-05-12T04:35:29.855Z,3.03
2019-05-12T04:38:06.442Z,3.10
2019-05-12T04:40:37.166Z,2.83
2019-05-12T04:43:14.521Z,3.00
2019-05-12T04:45:45.529Z,3.33
2019-05-12T04:48:20.835Z,2.77
2019-05-12T04:50:48.593Z,3.00
2019-05-12T04:53:19.242Z,2.73
2019-05-12T04:56:06.228Z,3.07
2019-05-12T04:58:24.970Z,3.17
2019-05-12T05:00:55.294Z,2.93
2019-05-12T05:03:26.878Z,3.40
2019-05-12T05:05:57.511Z,3.20
2019-05-12T05:08:28.098Z,3.20
2019-05-12T05:10:58.749Z,3.57
2019-05-12T05:13:29.417Z,3.60
2019-05-12T05:16:00.169Z,3.60
2019-05-12T05:18:30.638Z,3.10
2019-05-12T05:21:06.858Z,3.17
2019-05-12T05:23:37.417Z,3.17
2019-05-12T05:26:20.955Z,3.43
2019-05-12T05:28:40.360Z,3.63
2019-05-12T05:31:11.123Z,3.93
2019-05-12T05:33:43.426Z,3.50
2019-05-12T05:36:19.555Z,3.97
2019-05-12T05:38:50.918Z,3.80
2019-05-12T05:41:18.953Z,4.03
2019-05-12T05:43:56.383Z,3.60
2019-05-12T05:46:23.944Z,3.80
2019-05-12T05:49:00.388Z,4.23
2019-05-12T05:51:33.254Z,3.53
2019-05-12T05:54:04.387Z,3.67
2019-05-12T05:56:42.228Z,3.93
2019-05-12T05:59:08.253Z,3.93
2019-05-12T06:01:47.186Z,3.20
2019-05-12T06:04:14.086Z,4.00
2019-05-12T06:06:50.496Z,3.40
2019-05-12T06:09:26.034Z,3.70
2019-05-12T06:11:59.121Z,3.60
2019-05-12T06:14:34.246Z,3.40
2019-05-12T06:17:06.533Z,3.60
2019-05-12T06:19:37.251Z,3.50
2019-05-12T06:22:08.958Z,3.60
2019-05-12T06:24:40.259Z,3.70
2019-05-12T06:27:16.182Z,3.50
2019-05-12T06:29:43.724Z,3.90
2019-05-12T06:32:15.627Z,3.50
2019-05-12T06:34:59.797Z,3.97
2019-05-12T06:37:25.822Z,3.40
2019-05-12T06:40:00.528Z,3.33
2019-05-12T06:42:29.783Z,3.30
2019-05-12T06:45:03.946Z,2.93
2019-05-12T06:47:39.388Z,3.27
2019-05-12T06:50:14.605Z,3.00
2019-05-12T06:52:49.025Z,3.20
2019-05-12T06:55:28.549Z,3.10
2019-05-12T06:58:01.315Z,2.73
2019-05-12T07:00:35.044Z,2.60
2019-05-12T07:03:07.141Z,2.40
2019-05-12T07:05:42.352Z,2.60
2019-05-12T07:08:11.003Z,2.60
2019-05-12T07:10:44.254Z,3.30
2019-05-12T07:13:22.734Z,2.87
2019-05-12T07:15:54.385Z,2.57
2019-05-12T07:18:32.823Z,2.80
2019-05-12T07:21:01.164Z,2.77
2019-05-12T07:23:33.701Z,2.43
2019-05-12T07:26:12.905Z,2.53
2019-05-12T07:28:40.449Z,2.37
2019-05-12T07:31:08.848Z,2.70
2019-05-12T07:33:41.876Z,2.73
2019-05-12T07:36:13.791Z,2.90
2019-05-12T07:38:45.576Z,2.33
2019-05-12T07:41:18.948Z,3.07
2019-05-12T07:43:50.611Z,2.53
2019-05-12T07:46:24.976Z,2.70
2019-05-12T07:49:00.313Z,2.60
2019-05-12T07:51:38.309Z,2.20
2019-05-12T07:54:04.119Z,2.00
2019-05-12T07:56:35.856Z,1.80
2019-05-12T07:59:08.671Z,1.67
2019-05-12T08:01:50.148Z,1.83
2019-05-12T08:04:15.597Z,1.93
2019-05-12T08:06:50.006Z,1.30
2019-05-12T08:09:24.058Z,1.23
2019-05-12T08:11:54.090Z,1.37
2019-05-12T08:14:29.370Z,1.27
2019-05-12T08:17:01.890Z,1.37
2019-05-12T08:19:33.754Z,1.40
2019-05-12T08:22:11.010Z,1.50
2019-05-12T08:24:43.643Z,1.50
2019-05-12T08:27:16.074Z,1.80
2019-05-12T08:29:52.450Z,1.63
2019-05-12T08:32:20.348Z,1.63
2019-05-12T08:34:51.071Z,1.97
2019-05-12T08:37:24.251Z,1.87
2019-05-12T08:40:03.480Z,1.53
2019-05-12T08:42:27.498Z,1.70
2019-05-12T08:44:58.144Z,1.50
2019-05-12T08:47:34.397Z,1.60
2019-05-12T08:50:04.596Z,1.60
2019-05-12T08:52:37.123Z,1.47
2019-05-12T08:55:08.494Z,1.60
2019-05-12T08:57:48.632Z,1.50
2019-05-12T09:00:14.608Z,1.50
2019-05-12T09:02:50.442Z,1.40
2019-05-12T09:05:17.607Z,2.00
2019-05-12T09:07:48.543Z,2.37
2019-05-12T09:10:19.261Z,1.60
2019-05-12T09:12:50.977Z,1.20
2019-05-12T09:15:23.398Z,2.03
2019-05-12T09:17:56.832Z,1.83
2019-05-12T09:20:26.514Z,1.40
2019-05-12T09:23:00.530Z,1.60
2019-05-12T09:25:29.476Z,2.07
2019-05-12T09:28:03.583Z,3.73
2019-05-12T09:30:39.955Z,4.13
2019-05-12T09:33:08.962Z,3.00
2019-05-12T09:35:43.818Z,2.57
2019-05-12T09:38:21.361Z,2.27
2019-05-12T09:40:46.255Z,1.83
2019-05-12T09:43:18.816Z,1.83
2019-05-12T09:45:54.009Z,1.60
2019-05-12T09:48:24.730Z,1.50
2019-05-12T09:51:00.327Z,1.40
2019-05-12T09:53:27.391Z,1.77
2019-05-12T09:55:58.630Z,2.00
2019-05-12T09:58:29.511Z,1.63
2019-05-12T10:01:09.431Z,1.40
2019-05-12T10:03:40.248Z,1.40
2019-05-12T10:06:14.706Z,1.60
2019-05-12T10:08:43.567Z,1.43
2019-05-12T10:11:16.444Z,1.40
2019-05-12T10:13:46.886Z,1.60
2019-05-12T10:16:17.380Z,1.47
2019-05-12T10:18:51.121Z,1.30
2019-05-12T10:21:20.400Z,1.43
2019-05-12T10:24:00.164Z,1.87
2019-05-12T10:26:25.404Z,1.93
2019-05-12T10:28:58.397Z,1.83
2019-05-12T10:31:29.723Z,1.70
2019-05-12T10:34:18.664Z,1.63
2019-05-12T10:36:53.490Z,1.50
2019-05-12T10:39:24.404Z,1.50
2019-05-12T10:41:55.300Z,2.13
2019-05-12T10:44:30.103Z,1.90
2019-05-12T10:47:00.902Z,2.13
2019-05-12T10:49:33.602Z,1.90
2019-05-12T10:52:08.652Z,1.93
2019-05-12T10:54:39.343Z,1.73
2019-05-12T10:57:10.023Z,1.43
2019-05-12T10:59:45.223Z,2.30
2019-05-12T11:02:20.435Z,1.50
2019-05-12T11:04:50.425Z,1.70
2019-05-12T11:07:22.995Z,1.90
2019-05-12T11:09:54.354Z,1.70
2019-05-12T11:12:29.112Z,1.80
2019-05-12T11:15:01.397Z,1.47
2019-05-12T11:17:40.284Z,2.00
2019-05-12T11:20:11.265Z,2.00
2019-05-12T11:22:43.814Z,1.60
2019-05-12T11:25:14.542Z,1.50
2019-05-12T11:27:45.243Z,1.47
2019-05-12T11:30:16.041Z,1.70
2019-05-12T11:32:48.724Z,1.50
2019-05-12T11:35:20.398Z,1.40
2019-05-12T11:37:53.607Z,1.50
2019-05-12T11:40:23.892Z,1.73
2019-05-12T11:43:01.007Z,1.27
2019-05-12T11:45:27.875Z,1.50
2019-05-12T11:48:05.166Z,1.40
2019-05-12T11:50:31.985Z,1.70
2019-05-12T11:53:04.191Z,1.30
2019-05-12T11:55:35.217Z,1.63
2019-05-12T11:58:11.206Z,1.40
2019-05-12T12:00:49.109Z,1.30
2019-05-12T12:03:20.704Z,1.13
2019-05-12T12:05:53.578Z,1.47
2019-05-12T12:08:26.484Z,1.43
2019-05-12T12:10:55.954Z,1.10
2019-05-12T12:13:29.931Z,1.43
2019-05-12T12:16:00.545Z,1.30
2019-05-12T12:18:31.260Z,1.37
2019-05-12T12:21:06.018Z,1.20
2019-05-12T12:23:34.344Z,1.10
2019-05-12T12:26:05.017Z,1.10
2019-05-12T12:28:35.666Z,1.20
2019-05-12T12:31:07.848Z,1.13
2019-05-12T12:33:40.717Z,0.83
2019-05-12T12:36:10.693Z,1.10
2019-05-12T12:38:41.257Z,1.00
2019-05-12T12:41:13.178Z,0.80
2019-05-12T12:43:43.917Z,0.90
2019-05-12T12:46:21.498Z,1.00
2019-05-12T12:48:54.273Z,1.00
2019-05-12T12:51:25.058Z,1.13
2019-05-12T12:53:55.635Z,1.00
2019-05-12T12:56:29.927Z,1.20
2019-05-12T12:59:01.932Z,1.03
2019-05-12T13:01:33.543Z,1.03
2019-05-12T13:04:06.629Z,0.90
2019-05-12T13:06:37.401Z,1.10
2019-05-12T13:09:21.981Z,0.93
2019-05-12T13:11:40.793Z,1.10
2019-05-12T13:14:13.592Z,1.00
2019-05-12T13:16:49.301Z,0.70
2019-05-12T13:19:23.806Z,0.83
2019-05-12T13:21:54.642Z,0.97
2019-05-12T13:24:25.373Z,1.00
2019-05-12T13:27:06.152Z,1.10
2019-05-12T13:29:39.628Z,1.13
2019-05-12T13:32:09.341Z,1.20
2019-05-12T13:34:40.229Z,1.20
2019-05-12T13:37:15.480Z,1.73
2019-05-12T13:39:55.316Z,1.03
2019-05-12T13:42:16.870Z,1.20
2019-05-12T13:44:49.465Z,1.13
2019-05-12T13:47:20.128Z,1.10
2019-05-12T13:49:54.435Z,1.10
2019-05-12T13:52:30.602Z,1.07
2019-05-12T13:55:05.703Z,1.10
2019-05-12T13:57:34.180Z,1.20
2019-05-12T14:00:10.662Z,2.17
2019-05-12T14:02:39.614Z,2.70
2019-05-12T14:05:15.207Z,2.40
2019-05-12T14:07:44.151Z,2.20
2019-05-12T14:10:14.902Z,1.93
2019-05-12T14:12:45.655Z,1.40
2019-05-12T14:15:16.291Z,1.77
2019-05-12T14:17:49.037Z,1.10
2019-05-12T14:20:23.937Z,1.20
2019-05-12T14:22:56.287Z,1.80
2019-05-12T14:25:32.145Z,1.60
2019-05-12T14:28:05.458Z,1.70
2019-05-12T14:30:33.652Z,1.50
2019-05-12T14:33:06.362Z,1.60
2019-05-12T14:35:41.183Z,1.77
2019-05-12T14:38:13.994Z,1.50
2019-05-12T14:40:44.051Z,1.43
2019-05-12T14:43:17.009Z,1.40
2019-05-12T14:45:54.107Z,1.40
2019-05-12T14:48:24.707Z,1.40
2019-05-12T14:50:55.769Z,1.40
2019-05-12T14:53:26.547Z,1.60
2019-05-12T14:55:57.329Z,1.70
2019-05-12T14:58:29.042Z,1.57
2019-05-12T15:00:59.697Z,1.80
2019-05-12T15:03:30.359Z,1.70
2019-05-12T15:06:00.883Z,1.70
2019-05-12T15:08:36.298Z,2.23
2019-05-12T15:11:05.919Z,2.23
2019-05-12T15:13:36.611Z,1.93
2019-05-12T15:16:08.279Z,2.50
2019-05-12T15:18:39.504Z,1.90
2019-05-12T15:21:13.729Z,2.20
2019-05-12T15:23:44.224Z,1.70
2019-05-12T15:26:19.763Z,1.83
2019-05-12T15:28:48.184Z,1.60
2019-05-12T15:31:19.887Z,1.67
2019-05-12T15:33:53.700Z,1.30
2019-05-12T15:36:27.474Z,1.70
2019-05-12T15:38:59.040Z,1.53
2019-05-12T15:41:29.717Z,1.13
2019-05-12T15:44:00.226Z,1.40
2019-05-12T15:46:33.030Z,1.17
2019-05-12T15:49:03.537Z,1.00
2019-05-12T15:51:38.559Z,1.30
2019-05-12T15:54:11.681Z,1.30
2019-05-12T15:56:38.860Z,1.40
2019-05-12T15:59:09.565Z,1.10
2019-05-12T16:01:40.146Z,1.47
2019-05-12T16:04:15.424Z,1.27
2019-05-12T16:06:53.800Z,1.30
2019-05-12T16:09:24.052Z,1.33
2019-05-12T16:11:54.774Z,1.33
2019-05-12T16:14:30.468Z,1.13
2019-05-12T16:17:05.845Z,1.20
2019-05-12T16:19:34.526Z,1.23
2019-05-12T16:22:06.237Z,1.30
2019-05-12T16:24:36.833Z,1.60
2019-05-12T16:27:07.508Z,1.50
2019-05-12T16:29:54.693Z,1.40
2019-05-12T16:32:27.369Z,1.30
2019-05-12T16:34:57.695Z,1.40
2019-05-12T16:37:31.110Z,1.10
2019-05-12T16:40:04.452Z,1.20
2019-05-12T16:42:40.752Z,1.10
2019-05-12T16:45:10.715Z,1.33
2019-05-12T16:47:44.698Z,1.27
2019-05-12T16:50:24.303Z,1.30
2019-05-12T16:52:50.231Z,1.20
2019-05-12T16:55:24.182Z,1.30
2019-05-12T16:57:56.180Z,1.00
2019-05-12T17:00:27.100Z,1.13
2019-05-12T17:02:58.154Z,1.30
2019-05-12T17:05:30.204Z,1.37
2019-05-12T17:08:01.213Z,1.50
2019-05-12T17:10:33.759Z,1.40
2019-05-12T17:13:07.330Z,1.33
2019-05-12T17:15:36.993Z,1.20
2019-05-12T17:18:07.692Z,1.50
2019-05-12T17:20:40.865Z,1.47
2019-05-12T17:23:13.816Z,1.30
2019-05-12T17:25:45.865Z,1.20
2019-05-12T17:28:16.437Z,1.10
2019-05-12T17:30:54.634Z,1.40
2019-05-12T17:33:27.634Z,1.37
2019-05-12T17:36:05.032Z,1.30
2019-05-12T17:38:30.370Z,1.43
2019-05-12T17:41:03.776Z,1.07
2019-05-12T17:43:39.737Z,1.20
2019-05-12T17:46:12.406Z,1.00
2019-05-12T17:48:42.801Z,1.40
2019-05-12T17:51:14.023Z,1.37
2019-05-12T17:53:44.863Z,1.50
2019-05-12T17:56:15.491Z,1.40
2019-05-12T17:58:47.573Z,1.57
2019-05-12T18:01:23.131Z,1.47
2019-05-12T18:03:50.933Z,1.30
2019-05-12T18:06:26.710Z,1.20
2019-05-12T18:08:57.572Z,1.17
2019-05-12T18:11:28.314Z,1.17
2019-05-12T18:14:02.853Z,1.30
2019-05-12T18:16:33.903Z,1.10
2019-05-12T18:19:08.829Z,1.10
2019-05-12T18:21:37.064Z,1.50
2019-05-12T18:24:17.828Z,1.40
2019-05-12T18:26:56.557Z,1.50
2019-05-12T18:29:23.548Z,1.30
2019-05-12T18:31:56.133Z,1.10
2019-05-12T18:34:26.815Z,1.23
2019-05-12T18:37:00.090Z,0.97
2019-05-12T18:39:30.883Z,1.20
2019-05-12T18:42:03.731Z,1.33
2019-05-12T18:44:34.517Z,1.10
2019-05-12T18:47:05.492Z,1.13
2019-05-12T18:49:50.143Z,1.30
2019-05-12T18:52:29.119Z,1.20
2019-05-12T18:54:57.165Z,1.20
2019-05-12T18:57:38.775Z,1.50
2019-05-12T19:00:13.363Z,0.97
2019-05-12T19:02:51.133Z,0.90
2019-05-12T19:05:30.638Z,1.10
2019-05-12T19:08:00.071Z,1.13
2019-05-12T19:10:44.296Z,1.10
2019-05-12T19:13:12.569Z,1.17
2019-05-12T19:15:44.174Z,1.10
2019-05-12T19:18:18.009Z,1.10
2019-05-12T19:20:48.207Z,1.37
2019-05-12T19:23:19.085Z,1.37
2019-05-12T19:25:50.295Z,1.17
2019-05-12T19:28:23.665Z,1.47
2019-05-12T19:31:06.174Z,1.30
2019-05-12T19:33:43.911Z,1.10
2019-05-12T19:36:15.656Z,1.47
2019-05-12T19:38:46.300Z,1.37
2019-05-12T19:41:16.964Z,1.33
2019-05-12T19:43:53.380Z,1.13
2019-05-12T19:46:25.321Z,1.20
2019-05-12T19:48:55.956Z,1.30
2019-05-12T19:51:28.287Z,0.97
2019-05-12T19:53:59.205Z,1.40
2019-05-12T19:56:34.463Z,1.00
2019-05-12T19:59:04.226Z,1.23
2019-05-12T20:01:36.687Z,1.37
2019-05-12T20:04:07.822Z,1.23
2019-05-12T20:06:40.538Z,1.37
2019-05-12T20:09:14.599Z,1.50
2019-05-12T20:11:56.014Z,1.30
2019-05-12T20:14:36.017Z,1.30
2019-05-12T20:17:06.759Z,1.30
2019-05-12T20:19:37.461Z,1.27
2019-05-12T20:22:08.191Z,1.67
2019-05-12T20:24:38.798Z,1.30
2019-05-12T20:27:10.581Z,1.20
2019-05-12T20:29:43.459Z,1.37
2019-05-12T20:32:18.650Z,1.40
2019-05-12T20:34:55.500Z,1.33
2019-05-12T20:37:33.727Z,1.23
2019-05-12T20:40:06.597Z,1.27
2019-05-12T20:42:44.209Z,1.20
2019-05-12T20:45:14.105Z,1.33
2019-05-12T20:47:47.618Z,1.20
2019-05-12T20:50:24.170Z,1.50
2019-05-12T20:52:58.515Z,1.57
2019-05-12T20:55:24.290Z,1.30
2019-05-12T20:57:59.423Z,1.40
2019-05-12T21:00:33.519Z,1.40
2019-05-12T21:03:04.405Z,1.70
2019-05-12T21:05:36.652Z,1.37
2019-05-12T21:08:11.852Z,1.77
2019-05-12T21:10:43.766Z,1.83
2019-05-12T21:13:20.229Z,1.30
2019-05-12T21:15:48.014Z,1.30
2019-05-12T21:18:18.601Z,1.50
2019-05-12T21:20:52.287Z,1.60
2019-05-12T21:23:23.905Z,1.47
2019-05-12T21:25:58.064Z,1.60
2019-05-12T21:28:28.260Z,1.57
2019-05-12T21:30:59.026Z,1.67
2019-05-12T21:33:31.443Z,1.40
2019-05-12T21:36:03.641Z,1.60
2019-05-12T21:38:38.318Z,1.70
2019-05-12T21:41:10.158Z,1.60
2019-05-12T21:43:40.701Z,1.53
2019-05-12T21:46:13.180Z,1.57
2019-05-12T21:48:44.728Z,1.73
2019-05-12T21:51:19.796Z,1.70
2019-05-12T21:53:50.493Z,1.83
2019-05-12T21:56:19.984Z,1.40
2019-05-12T21:58:53.700Z,1.50
2019-05-12T22:01:23.870Z,1.60
2019-05-12T22:04:01.940Z,1.47
2019-05-12T22:06:27.016Z,1.33
2019-05-12T22:09:01.162Z,1.60
2019-05-12T22:11:34.616Z,1.70
2019-05-12T22:14:05.614Z,1.50
2019-05-12T22:16:44.276Z,1.20
2019-05-12T22:19:13.208Z,1.53
2019-05-12T22:21:49.214Z,1.20
2019-05-12T22:24:16.292Z,1.60
2019-05-12T22:26:47.997Z,1.60
2019-05-12T22:29:21.184Z,1.30
2019-05-12T22:31:51.001Z,1.10
2019-05-12T22:34:27.635Z,1.60
2019-05-12T22:36:57.898Z,1.30
2019-05-12T22:39:26.431Z,1.70
2019-05-12T22:41:57.040Z,2.00
2019-05-12T22:44:27.523Z,1.50
2019-05-12T22:46:58.176Z,1.33
2019-05-12T22:49:28.776Z,1.67
2019-05-12T22:52:07.416Z,1.13
2019-05-12T22:54:40.600Z,1.20
2019-05-12T22:57:10.516Z,1.50
2019-05-12T22:59:42.686Z,1.40
2019-05-12T23:02:18.035Z,1.40
2019-05-12T23:04:46.090Z,1.30
2019-05-12T23:07:19.213Z,1.37
2019-05-12T23:09:49.012Z,1.50
2019-05-12T23:12:20.257Z,1.67
2019-05-12T23:14:56.444Z,1.70
2019-05-12T23:17:24.636Z,1.60
2019-05-12T23:19:59.886Z,1.30
2019-05-12T23:22:35.092Z,1.50
2019-05-12T23:25:03.966Z,1.60
2019-05-12T23:27:34.762Z,1.57
2019-05-12T23:30:10.986Z,1.50
2019-05-12T23:32:45.300Z,1.77
2019-05-12T23:35:10.416Z,1.50
2019-05-12T23:37:44.147Z,1.60
2019-05-12T23:40:16.533Z,1.63
2019-05-12T23:42:46.939Z,1.50
2019-05-12T23:45:17.577Z,1.80
2019-05-12T23:47:48.082Z,1.90
2019-05-12T23:50:18.753Z,2.03
2019-05-12T23:52:49.523Z,1.80
2019-05-12T23:55:20.086Z,1.93
2019-05-12T23:57:50.761Z,2.13
